sensor_id;sensor_type;location;lat;lon;timestamp;P1;durP1;ratioP1;P2;durP2;ratioP2
11004;SDS011;5555;59.622;16.556;2022-12-07T00:01:14;7.27;;;2.30;;
11004;SDS011;5555;59.622;16.556;2022-12-07T00:03:48;5.17;;;1.77;;
11004;SDS011;5555;59.622;16.556;2022-12-07T00:06:16;2.63;;;2.00;;
11004;SDS011;5555;59.622;16.556;2022-12-07T00:08:42;4.23;;;2.63;;
11004;SDS011;5555;59.622;16.556;2022-12-07T00:11:13;3.73;;;1.93;;
11004;SDS011;5555;59.622;16.556;2022-12-07T00:13:40;4.53;;;2.20;;
11004;SDS011;5555;59.622;16.556;2022-12-07T00:16:11;4.30;;;1.80;;
11004;SDS011;5555;59.622;16.556;2022-12-07T00:18:41;4.97;;;2.10;;
11004;SDS011;5555;59.622;16.556;2022-12-07T00:21:12;4.77;;;2.20;;
11004;SDS011;5555;59.622;16.556;2022-12-07T00:23:42;3.03;;;1.97;;
11004;SDS011;5555;59.622;16.556;2022-12-07T00:26:10;3.77;;;2.40;;
11004;SDS011;5555;59.622;16.556;2022-12-07T00:28:48;2.53;;;1.77;;
11004;SDS011;5555;59.622;16.556;2022-12-07T00:31:16;3.87;;;1.87;;
11004;SDS011;5555;59.622;16.556;2022-12-07T00:33:43;5.13;;;2.20;;
11004;SDS011;5555;59.622;16.556;2022-12-07T00:36:10;3.53;;;2.40;;
11004;SDS011;5555;59.622;16.556;2022-12-07T00:38:38;6.77;;;2.03;;
11004;SDS011;5555;59.622;16.556;2022-12-07T00:41:09;6.63;;;2.47;;
11004;SDS011;5555;59.622;16.556;2022-12-07T00:43:40;4.13;;;2.33;;
11004;SDS011;5555;59.622;16.556;2022-12-07T00:46:07;4.47;;;2.20;;
11004;SDS011;5555;59.622;16.556;2022-12-07T00:48:33;4.90;;;2.33;;
11004;SDS011;5555;59.622;16.556;2022-12-07T00:50:59;4.40;;;1.90;;
11004;SDS011;5555;59.622;16.556;2022-12-07T00:53:24;3.83;;;2.20;;
11004;SDS011;5555;59.622;16.556;2022-12-07T00:55:51;7.13;;;2.50;;
11004;SDS011;5555;59.622;16.556;2022-12-07T00:58:17;5.10;;;2.50;;
11004;SDS011;5555;59.622;16.556;2022-12-07T01:00:43;4.50;;;2.30;;
11004;SDS011;5555;59.622;16.556;2022-12-07T01:03:10;5.90;;;2.97;;
11004;SDS011;5555;59.622;16.556;2022-12-07T01:05:37;5.13;;;2.40;;
11004;SDS011;5555;59.622;16.556;2022-12-07T01:08:03;7.80;;;2.53;;
11004;SDS011;5555;59.622;16.556;2022-12-07T01:10:30;8.57;;;2.23;;
11004;SDS011;5555;59.622;16.556;2022-12-07T01:12:56;7.27;;;2.80;;
11004;SDS011;5555;59.622;16.556;2022-12-07T01:15:22;6.53;;;2.30;;
11004;SDS011;5555;59.622;16.556;2022-12-07T01:17:48;5.67;;;2.50;;
11004;SDS011;5555;59.622;16.556;2022-12-07T01:20:14;8.03;;;2.37;;
11004;SDS011;5555;59.622;16.556;2022-12-07T01:22:41;5.27;;;2.80;;
11004;SDS011;5555;59.622;16.556;2022-12-07T01:25:07;5.40;;;2.73;;
11004;SDS011;5555;59.622;16.556;2022-12-07T01:27:35;3.20;;;1.93;;
11004;SDS011;5555;59.622;16.556;2022-12-07T01:30:03;5.70;;;2.90;;
11004;SDS011;5555;59.622;16.556;2022-12-07T01:32:30;4.33;;;2.20;;
11004;SDS011;5555;59.622;16.556;2022-12-07T01:34:56;5.17;;;2.23;;
11004;SDS011;5555;59.622;16.556;2022-12-07T01:37:21;4.40;;;2.60;;
11004;SDS011;5555;59.622;16.556;2022-12-07T01:39:50;5.27;;;2.60;;
11004;SDS011;5555;59.622;16.556;2022-12-07T01:42:16;7.37;;;2.07;;
11004;SDS011;5555;59.622;16.556;2022-12-07T01:48:01;5.20;;;2.40;;
11004;SDS011;5555;59.622;16.556;2022-12-07T01:50:27;6.03;;;2.53;;
11004;SDS011;5555;59.622;16.556;2022-12-07T01:52:56;2.77;;;1.90;;
11004;SDS011;5555;59.622;16.556;2022-12-07T01:55:25;4.63;;;2.27;;
11004;SDS011;5555;59.622;16.556;2022-12-07T01:57:52;7.37;;;2.37;;
11004;SDS011;5555;59.622;16.556;2022-12-07T02:00:19;3.30;;;1.87;;
11004;SDS011;5555;59.622;16.556;2022-12-07T02:02:53;3.70;;;1.90;;
11004;SDS011;5555;59.622;16.556;2022-12-07T02:05:22;3.83;;;2.20;;
11004;SDS011;5555;59.622;16.556;2022-12-07T02:07:50;5.67;;;2.30;;
11004;SDS011;5555;59.622;16.556;2022-12-07T02:10:18;4.77;;;2.00;;
11004;SDS011;5555;59.622;16.556;2022-12-07T02:12:47;4.20;;;2.13;;
11004;SDS011;5555;59.622;16.556;2022-12-07T02:15:16;4.73;;;2.13;;
11004;SDS011;5555;59.622;16.556;2022-12-07T02:17:49;6.50;;;2.47;;
11004;SDS011;5555;59.622;16.556;2022-12-07T02:20:48;4.97;;;1.83;;
11004;SDS011;5555;59.622;16.556;2022-12-07T02:23:41;5.50;;;2.67;;
11004;SDS011;5555;59.622;16.556;2022-12-07T02:26:56;4.90;;;2.17;;
11004;SDS011;5555;59.622;16.556;2022-12-07T02:32:08;5.07;;;2.67;;
11004;SDS011;5555;59.622;16.556;2022-12-07T02:34:42;4.77;;;2.17;;
11004;SDS011;5555;59.622;16.556;2022-12-07T02:37:57;4.63;;;2.30;;
11004;SDS011;5555;59.622;16.556;2022-12-07T02:40:08;5.37;;;2.17;;
11004;SDS011;5555;59.622;16.556;2022-12-07T02:42:36;3.77;;;1.80;;
11004;SDS011;5555;59.622;16.556;2022-12-07T02:45:06;3.80;;;2.10;;
11004;SDS011;5555;59.622;16.556;2022-12-07T02:47:33;3.30;;;2.10;;
11004;SDS011;5555;59.622;16.556;2022-12-07T02:50:02;4.63;;;2.10;;
11004;SDS011;5555;59.622;16.556;2022-12-07T02:52:31;4.07;;;2.27;;
11004;SDS011;5555;59.622;16.556;2022-12-07T02:54:57;4.40;;;2.00;;
11004;SDS011;5555;59.622;16.556;2022-12-07T02:57:29;6.60;;;2.67;;
11004;SDS011;5555;59.622;16.556;2022-12-07T03:00:00;4.53;;;2.30;;
11004;SDS011;5555;59.622;16.556;2022-12-07T03:11:00;3.60;;;1.80;;
11004;SDS011;5555;59.622;16.556;2022-12-07T03:13:34;6.30;;;2.37;;
11004;SDS011;5555;59.622;16.556;2022-12-07T03:16:19;6.20;;;3.10;;
11004;SDS011;5555;59.622;16.556;2022-12-07T03:18:53;5.80;;;2.13;;
11004;SDS011;5555;59.622;16.556;2022-12-07T03:21:32;2.73;;;2.43;;
11004;SDS011;5555;59.622;16.556;2022-12-07T03:24:04;4.97;;;2.33;;
11004;SDS011;5555;59.622;16.556;2022-12-07T03:26:38;4.70;;;2.00;;
11004;SDS011;5555;59.622;16.556;2022-12-07T03:29:16;4.03;;;1.93;;
11004;SDS011;5555;59.622;16.556;2022-12-07T03:31:46;5.33;;;1.97;;
11004;SDS011;5555;59.622;16.556;2022-12-07T03:39:45;4.40;;;2.40;;
11004;SDS011;5555;59.622;16.556;2022-12-07T03:42:19;5.73;;;2.00;;
11004;SDS011;5555;59.622;16.556;2022-12-07T03:44:45;5.60;;;2.30;;
11004;SDS011;5555;59.622;16.556;2022-12-07T03:52:47;5.83;;;2.10;;
11004;SDS011;5555;59.622;16.556;2022-12-07T03:55:23;3.37;;;2.10;;
11004;SDS011;5555;59.622;16.556;2022-12-07T03:57:51;3.60;;;1.97;;
11004;SDS011;5555;59.622;16.556;2022-12-07T04:00:21;5.07;;;2.47;;
11004;SDS011;5555;59.622;16.556;2022-12-07T04:02:46;4.93;;;1.97;;
11004;SDS011;5555;59.622;16.556;2022-12-07T04:05:12;6.87;;;2.63;;
11004;SDS011;5555;59.622;16.556;2022-12-07T04:07:38;4.83;;;2.00;;
11004;SDS011;5555;59.622;16.556;2022-12-07T04:10:05;4.47;;;2.87;;
11004;SDS011;5555;59.622;16.556;2022-12-07T04:12:31;3.07;;;2.13;;
11004;SDS011;5555;59.622;16.556;2022-12-07T04:14:56;5.47;;;2.43;;
11004;SDS011;5555;59.622;16.556;2022-12-07T04:17:22;5.13;;;2.23;;
11004;SDS011;5555;59.622;16.556;2022-12-07T04:19:47;3.13;;;2.40;;
11004;SDS011;5555;59.622;16.556;2022-12-07T04:22:13;3.27;;;1.83;;
11004;SDS011;5555;59.622;16.556;2022-12-07T04:24:39;4.73;;;1.97;;
11004;SDS011;5555;59.622;16.556;2022-12-07T04:27:04;2.63;;;1.77;;
11004;SDS011;5555;59.622;16.556;2022-12-07T04:29:30;4.87;;;2.03;;
11004;SDS011;5555;59.622;16.556;2022-12-07T04:31:55;5.93;;;2.20;;
11004;SDS011;5555;59.622;16.556;2022-12-07T04:34:21;2.87;;;2.03;;
11004;SDS011;5555;59.622;16.556;2022-12-07T04:36:47;4.60;;;2.13;;
11004;SDS011;5555;59.622;16.556;2022-12-07T04:39:17;3.10;;;1.90;;
11004;SDS011;5555;59.622;16.556;2022-12-07T04:41:43;4.57;;;1.90;;
11004;SDS011;5555;59.622;16.556;2022-12-07T04:44:14;7.10;;;2.07;;
11004;SDS011;5555;59.622;16.556;2022-12-07T04:46:40;5.33;;;1.90;;
11004;SDS011;5555;59.622;16.556;2022-12-07T04:49:06;3.40;;;2.03;;
11004;SDS011;5555;59.622;16.556;2022-12-07T04:51:32;3.33;;;1.83;;
11004;SDS011;5555;59.622;16.556;2022-12-07T04:53:58;4.40;;;1.93;;
11004;SDS011;5555;59.622;16.556;2022-12-07T04:56:23;8.03;;;1.80;;
11004;SDS011;5555;59.622;16.556;2022-12-07T04:58:50;2.83;;;1.97;;
11004;SDS011;5555;59.622;16.556;2022-12-07T05:01:17;4.97;;;2.10;;
11004;SDS011;5555;59.622;16.556;2022-12-07T05:03:43;5.13;;;1.80;;
11004;SDS011;5555;59.622;16.556;2022-12-07T05:06:09;4.93;;;1.90;;
11004;SDS011;5555;59.622;16.556;2022-12-07T05:08:35;2.60;;;1.73;;
11004;SDS011;5555;59.622;16.556;2022-12-07T05:11:01;3.10;;;1.87;;
11004;SDS011;5555;59.622;16.556;2022-12-07T05:13:27;3.30;;;1.73;;
11004;SDS011;5555;59.622;16.556;2022-12-07T05:15:53;3.60;;;1.77;;
11004;SDS011;5555;59.622;16.556;2022-12-07T05:18:19;4.07;;;2.03;;
11004;SDS011;5555;59.622;16.556;2022-12-07T05:20:45;5.17;;;1.87;;
11004;SDS011;5555;59.622;16.556;2022-12-07T05:23:11;5.47;;;1.87;;
11004;SDS011;5555;59.622;16.556;2022-12-07T05:25:37;4.70;;;2.10;;
11004;SDS011;5555;59.622;16.556;2022-12-07T05:28:03;2.67;;;2.07;;
11004;SDS011;5555;59.622;16.556;2022-12-07T05:30:30;2.93;;;1.80;;
11004;SDS011;5555;59.622;16.556;2022-12-07T05:32:55;5.73;;;1.77;;
11004;SDS011;5555;59.622;16.556;2022-12-07T05:35:21;3.63;;;1.93;;
11004;SDS011;5555;59.622;16.556;2022-12-07T05:37:47;3.07;;;1.93;;
11004;SDS011;5555;59.622;16.556;2022-12-07T05:40:14;4.27;;;1.47;;
11004;SDS011;5555;59.622;16.556;2022-12-07T05:42:40;6.33;;;2.00;;
11004;SDS011;5555;59.622;16.556;2022-12-07T05:45:06;5.80;;;2.00;;
11004;SDS011;5555;59.622;16.556;2022-12-07T05:47:33;3.90;;;2.33;;
11004;SDS011;5555;59.622;16.556;2022-12-07T05:49:58;3.63;;;1.90;;
11004;SDS011;5555;59.622;16.556;2022-12-07T05:52:24;5.07;;;1.90;;
11004;SDS011;5555;59.622;16.556;2022-12-07T05:54:50;3.50;;;1.80;;
11004;SDS011;5555;59.622;16.556;2022-12-07T05:57:16;3.47;;;2.10;;
11004;SDS011;5555;59.622;16.556;2022-12-07T05:59:42;4.07;;;2.07;;
11004;SDS011;5555;59.622;16.556;2022-12-07T06:02:09;3.13;;;1.80;;
11004;SDS011;5555;59.622;16.556;2022-12-07T06:04:37;3.60;;;1.97;;
11004;SDS011;5555;59.622;16.556;2022-12-07T06:07:05;4.83;;;1.93;;
11004;SDS011;5555;59.622;16.556;2022-12-07T06:09:31;5.27;;;1.97;;
11004;SDS011;5555;59.622;16.556;2022-12-07T06:11:58;5.10;;;2.00;;
11004;SDS011;5555;59.622;16.556;2022-12-07T06:14:42;3.10;;;2.03;;
11004;SDS011;5555;59.622;16.556;2022-12-07T06:17:08;3.90;;;1.77;;
11004;SDS011;5555;59.622;16.556;2022-12-07T06:19:35;3.43;;;1.83;;
11004;SDS011;5555;59.622;16.556;2022-12-07T06:22:01;10.37;;;1.93;;
11004;SDS011;5555;59.622;16.556;2022-12-07T06:24:29;2.50;;;1.50;;
11004;SDS011;5555;59.622;16.556;2022-12-07T06:26:55;3.37;;;1.53;;
11004;SDS011;5555;59.622;16.556;2022-12-07T06:29:21;5.37;;;1.63;;
11004;SDS011;5555;59.622;16.556;2022-12-07T06:31:47;3.60;;;1.60;;
11004;SDS011;5555;59.622;16.556;2022-12-07T06:34:14;3.57;;;2.23;;
11004;SDS011;5555;59.622;16.556;2022-12-07T06:36:41;5.57;;;2.10;;
11004;SDS011;5555;59.622;16.556;2022-12-07T06:39:07;4.10;;;1.87;;
11004;SDS011;5555;59.622;16.556;2022-12-07T06:41:34;3.00;;;1.77;;
11004;SDS011;5555;59.622;16.556;2022-12-07T06:44:01;4.10;;;1.93;;
11004;SDS011;5555;59.622;16.556;2022-12-07T06:46:27;4.70;;;2.10;;
11004;SDS011;5555;59.622;16.556;2022-12-07T06:48:53;2.37;;;1.73;;
11004;SDS011;5555;59.622;16.556;2022-12-07T06:51:19;3.77;;;2.13;;
11004;SDS011;5555;59.622;16.556;2022-12-07T06:53:44;4.87;;;1.93;;
11004;SDS011;5555;59.622;16.556;2022-12-07T06:56:10;2.63;;;2.23;;
11004;SDS011;5555;59.622;16.556;2022-12-07T06:58:35;3.43;;;2.00;;
11004;SDS011;5555;59.622;16.556;2022-12-07T07:01:01;4.50;;;2.47;;
11004;SDS011;5555;59.622;16.556;2022-12-07T07:03:27;3.07;;;1.60;;
11004;SDS011;5555;59.622;16.556;2022-12-07T07:05:53;4.53;;;2.10;;
11004;SDS011;5555;59.622;16.556;2022-12-07T07:08:19;2.90;;;1.97;;
11004;SDS011;5555;59.622;16.556;2022-12-07T07:10:44;7.07;;;2.20;;
11004;SDS011;5555;59.622;16.556;2022-12-07T07:13:10;2.67;;;1.80;;
11004;SDS011;5555;59.622;16.556;2022-12-07T07:15:36;3.70;;;1.50;;
11004;SDS011;5555;59.622;16.556;2022-12-07T07:18:03;2.30;;;1.70;;
11004;SDS011;5555;59.622;16.556;2022-12-07T07:20:28;2.33;;;1.67;;
11004;SDS011;5555;59.622;16.556;2022-12-07T07:22:54;4.17;;;1.80;;
11004;SDS011;5555;59.622;16.556;2022-12-07T07:25:21;6.73;;;2.17;;
11004;SDS011;5555;59.622;16.556;2022-12-07T07:27:46;4.30;;;2.30;;
11004;SDS011;5555;59.622;16.556;2022-12-07T07:30:12;3.20;;;1.97;;
11004;SDS011;5555;59.622;16.556;2022-12-07T07:32:38;3.73;;;1.80;;
11004;SDS011;5555;59.622;16.556;2022-12-07T07:35:03;5.17;;;1.83;;
11004;SDS011;5555;59.622;16.556;2022-12-07T07:37:29;6.03;;;2.10;;
11004;SDS011;5555;59.622;16.556;2022-12-07T07:39:55;6.30;;;2.00;;
11004;SDS011;5555;59.622;16.556;2022-12-07T07:42:21;3.33;;;2.20;;
11004;SDS011;5555;59.622;16.556;2022-12-07T07:44:47;3.80;;;2.00;;
11004;SDS011;5555;59.622;16.556;2022-12-07T07:47:12;4.03;;;1.90;;
11004;SDS011;5555;59.622;16.556;2022-12-07T07:49:38;6.00;;;2.00;;
11004;SDS011;5555;59.622;16.556;2022-12-07T07:52:04;4.67;;;1.97;;
11004;SDS011;5555;59.622;16.556;2022-12-07T07:54:31;4.53;;;2.27;;
11004;SDS011;5555;59.622;16.556;2022-12-07T07:56:56;4.20;;;1.70;;
11004;SDS011;5555;59.622;16.556;2022-12-07T07:59:22;4.23;;;1.60;;
11004;SDS011;5555;59.622;16.556;2022-12-07T08:01:49;4.60;;;1.63;;
11004;SDS011;5555;59.622;16.556;2022-12-07T08:04:15;3.60;;;1.73;;
11004;SDS011;5555;59.622;16.556;2022-12-07T08:06:41;3.83;;;1.80;;
11004;SDS011;5555;59.622;16.556;2022-12-07T08:09:07;4.93;;;1.53;;
11004;SDS011;5555;59.622;16.556;2022-12-07T08:11:33;5.00;;;1.93;;
11004;SDS011;5555;59.622;16.556;2022-12-07T08:13:59;5.50;;;1.97;;
11004;SDS011;5555;59.622;16.556;2022-12-07T08:16:25;7.60;;;1.70;;
11004;SDS011;5555;59.622;16.556;2022-12-07T08:18:51;7.97;;;1.70;;
11004;SDS011;5555;59.622;16.556;2022-12-07T08:21:16;2.70;;;1.80;;
11004;SDS011;5555;59.622;16.556;2022-12-07T08:23:42;2.43;;;1.37;;
11004;SDS011;5555;59.622;16.556;2022-12-07T08:26:09;7.10;;;2.30;;
11004;SDS011;5555;59.622;16.556;2022-12-07T08:28:36;5.47;;;2.03;;
11004;SDS011;5555;59.622;16.556;2022-12-07T08:31:06;4.77;;;1.97;;
11004;SDS011;5555;59.622;16.556;2022-12-07T08:33:44;5.53;;;2.07;;
11004;SDS011;5555;59.622;16.556;2022-12-07T08:36:11;4.80;;;2.13;;
11004;SDS011;5555;59.622;16.556;2022-12-07T08:38:38;6.43;;;2.60;;
11004;SDS011;5555;59.622;16.556;2022-12-07T08:41:04;5.23;;;2.10;;
11004;SDS011;5555;59.622;16.556;2022-12-07T08:43:31;5.53;;;2.60;;
11004;SDS011;5555;59.622;16.556;2022-12-07T08:46:08;7.83;;;1.90;;
11004;SDS011;5555;59.622;16.556;2022-12-07T08:48:37;3.13;;;2.10;;
11004;SDS011;5555;59.622;16.556;2022-12-07T08:51:11;2.10;;;1.87;;
11004;SDS011;5555;59.622;16.556;2022-12-07T08:53:38;4.13;;;2.27;;
11004;SDS011;5555;59.622;16.556;2022-12-07T08:56:04;2.80;;;1.90;;
11004;SDS011;5555;59.622;16.556;2022-12-07T08:58:31;3.87;;;1.90;;
11004;SDS011;5555;59.622;16.556;2022-12-07T09:00:58;4.43;;;2.10;;
11004;SDS011;5555;59.622;16.556;2022-12-07T09:03:24;5.13;;;2.40;;
11004;SDS011;5555;59.622;16.556;2022-12-07T09:05:49;4.27;;;2.10;;
11004;SDS011;5555;59.622;16.556;2022-12-07T09:08:15;3.03;;;2.07;;
11004;SDS011;5555;59.622;16.556;2022-12-07T09:10:41;3.53;;;2.07;;
11004;SDS011;5555;59.622;16.556;2022-12-07T09:13:07;2.50;;;1.77;;
11004;SDS011;5555;59.622;16.556;2022-12-07T09:15:32;3.30;;;1.90;;
11004;SDS011;5555;59.622;16.556;2022-12-07T09:17:58;4.60;;;2.17;;
11004;SDS011;5555;59.622;16.556;2022-12-07T09:20:25;7.10;;;2.27;;
11004;SDS011;5555;59.622;16.556;2022-12-07T09:22:50;2.50;;;1.63;;
11004;SDS011;5555;59.622;16.556;2022-12-07T09:25:16;3.20;;;1.73;;
11004;SDS011;5555;59.622;16.556;2022-12-07T09:27:41;5.00;;;2.50;;
11004;SDS011;5555;59.622;16.556;2022-12-07T09:30:07;5.33;;;2.77;;
11004;SDS011;5555;59.622;16.556;2022-12-07T09:32:33;3.93;;;2.53;;
11004;SDS011;5555;59.622;16.556;2022-12-07T09:34:59;5.27;;;2.90;;
11004;SDS011;5555;59.622;16.556;2022-12-07T09:37:24;9.27;;;4.20;;
11004;SDS011;5555;59.622;16.556;2022-12-07T09:39:50;7.10;;;4.77;;
11004;SDS011;5555;59.622;16.556;2022-12-07T09:42:35;6.57;;;4.60;;
11004;SDS011;5555;59.622;16.556;2022-12-07T09:45:05;6.30;;;3.50;;
11004;SDS011;5555;59.622;16.556;2022-12-07T09:47:32;6.50;;;3.70;;
11004;SDS011;5555;59.622;16.556;2022-12-07T09:50:06;5.90;;;3.60;;
11004;SDS011;5555;59.622;16.556;2022-12-07T09:52:38;4.53;;;3.63;;
11004;SDS011;5555;59.622;16.556;2022-12-07T09:55:09;4.70;;;2.87;;
11004;SDS011;5555;59.622;16.556;2022-12-07T09:57:37;4.87;;;2.57;;
11004;SDS011;5555;59.622;16.556;2022-12-07T10:00:05;6.13;;;2.27;;
11004;SDS011;5555;59.622;16.556;2022-12-07T10:02:40;5.43;;;2.10;;
11004;SDS011;5555;59.622;16.556;2022-12-07T10:05:13;4.13;;;1.83;;
11004;SDS011;5555;59.622;16.556;2022-12-07T10:07:41;3.83;;;1.60;;
11004;SDS011;5555;59.622;16.556;2022-12-07T10:10:13;2.37;;;1.70;;
11004;SDS011;5555;59.622;16.556;2022-12-07T10:13:15;10.13;;;2.13;;
11004;SDS011;5555;59.622;16.556;2022-12-07T10:18:29;6.93;;;2.00;;
11004;SDS011;5555;59.622;16.556;2022-12-07T10:21:17;4.30;;;1.80;;
11004;SDS011;5555;59.622;16.556;2022-12-07T10:29:21;5.23;;;2.20;;
11004;SDS011;5555;59.622;16.556;2022-12-07T10:31:57;6.90;;;2.90;;
11004;SDS011;5555;59.622;16.556;2022-12-07T10:34:33;4.13;;;2.70;;
11004;SDS011;5555;59.622;16.556;2022-12-07T10:40:00;4.97;;;2.50;;
11004;SDS011;5555;59.622;16.556;2022-12-07T10:42:26;3.27;;;2.10;;
11004;SDS011;5555;59.622;16.556;2022-12-07T10:53:24;3.77;;;1.67;;
11004;SDS011;5555;59.622;16.556;2022-12-07T11:01:21;5.33;;;1.87;;
11004;SDS011;5555;59.622;16.556;2022-12-07T11:04:26;4.77;;;2.17;;
11004;SDS011;5555;59.622;16.556;2022-12-07T11:09:57;8.33;;;2.00;;
11004;SDS011;5555;59.622;16.556;2022-12-07T11:34:56;4.60;;;1.43;;
11004;SDS011;5555;59.622;16.556;2022-12-07T11:37:12;2.20;;;1.80;;
11004;SDS011;5555;59.622;16.556;2022-12-07T11:39:44;2.67;;;1.20;;
11004;SDS011;5555;59.622;16.556;2022-12-07T11:42:37;2.00;;;1.70;;
11004;SDS011;5555;59.622;16.556;2022-12-07T11:45:15;3.13;;;1.60;;
11004;SDS011;5555;59.622;16.556;2022-12-07T11:50:33;2.47;;;1.67;;
11004;SDS011;5555;59.622;16.556;2022-12-07T11:53:03;5.43;;;1.97;;
11004;SDS011;5555;59.622;16.556;2022-12-07T11:55:47;4.13;;;1.60;;
11004;SDS011;5555;59.622;16.556;2022-12-07T11:58:28;4.77;;;1.60;;
11004;SDS011;5555;59.622;16.556;2022-12-07T12:03:58;1.90;;;1.50;;
11004;SDS011;5555;59.622;16.556;2022-12-07T12:06:38;2.63;;;1.40;;
11004;SDS011;5555;59.622;16.556;2022-12-07T12:09:15;5.40;;;1.60;;
11004;SDS011;5555;59.622;16.556;2022-12-07T12:25:26;1.73;;;1.17;;
11004;SDS011;5555;59.622;16.556;2022-12-07T12:27:55;3.87;;;1.70;;
11004;SDS011;5555;59.622;16.556;2022-12-07T12:30:33;2.53;;;1.70;;
11004;SDS011;5555;59.622;16.556;2022-12-07T12:33:13;2.00;;;1.30;;
11004;SDS011;5555;59.622;16.556;2022-12-07T12:35:39;2.13;;;1.40;;
11004;SDS011;5555;59.622;16.556;2022-12-07T12:40:50;1.27;;;1.10;;
11004;SDS011;5555;59.622;16.556;2022-12-07T12:51:40;2.20;;;1.20;;
11004;SDS011;5555;59.622;16.556;2022-12-07T13:21:02;2.73;;;1.53;;
11004;SDS011;5555;59.622;16.556;2022-12-07T13:28:42;7.07;;;1.70;;
11004;SDS011;5555;59.622;16.556;2022-12-07T13:31:41;3.50;;;1.40;;
11004;SDS011;5555;59.622;16.556;2022-12-07T13:36:57;3.80;;;2.17;;
11004;SDS011;5555;59.622;16.556;2022-12-07T13:39:32;3.83;;;1.70;;
11004;SDS011;5555;59.622;16.556;2022-12-07T13:42:06;3.13;;;1.77;;
11004;SDS011;5555;59.622;16.556;2022-12-07T13:44:40;2.30;;;1.47;;
11004;SDS011;5555;59.622;16.556;2022-12-07T13:47:09;3.90;;;1.60;;
11004;SDS011;5555;59.622;16.556;2022-12-07T13:49:51;6.90;;;1.80;;
11004;SDS011;5555;59.622;16.556;2022-12-07T13:52:27;3.90;;;1.93;;
11004;SDS011;5555;59.622;16.556;2022-12-07T13:57:28;3.13;;;1.70;;
11004;SDS011;5555;59.622;16.556;2022-12-07T13:59:56;3.53;;;1.50;;
11004;SDS011;5555;59.622;16.556;2022-12-07T14:05:14;2.73;;;1.60;;
11004;SDS011;5555;59.622;16.556;2022-12-07T14:07:58;4.83;;;1.90;;
11004;SDS011;5555;59.622;16.556;2022-12-07T14:10:29;6.17;;;2.00;;
11004;SDS011;5555;59.622;16.556;2022-12-07T14:12:57;5.83;;;1.70;;
11004;SDS011;5555;59.622;16.556;2022-12-07T14:15:24;2.07;;;1.60;;
11004;SDS011;5555;59.622;16.556;2022-12-07T14:17:56;4.43;;;2.00;;
11004;SDS011;5555;59.622;16.556;2022-12-07T14:22:55;3.60;;;1.93;;
11004;SDS011;5555;59.622;16.556;2022-12-07T14:25:25;6.03;;;2.00;;
11004;SDS011;5555;59.622;16.556;2022-12-07T14:28:01;3.47;;;2.30;;
11004;SDS011;5555;59.622;16.556;2022-12-07T14:30:27;4.20;;;2.07;;
11004;SDS011;5555;59.622;16.556;2022-12-07T14:33:02;3.67;;;2.53;;
11004;SDS011;5555;59.622;16.556;2022-12-07T14:35:29;5.27;;;2.60;;
11004;SDS011;5555;59.622;16.556;2022-12-07T14:37:56;3.10;;;2.30;;
11004;SDS011;5555;59.622;16.556;2022-12-07T14:40:26;3.73;;;2.10;;
11004;SDS011;5555;59.622;16.556;2022-12-07T14:42:54;5.93;;;2.43;;
11004;SDS011;5555;59.622;16.556;2022-12-07T14:45:24;3.93;;;2.07;;
11004;SDS011;5555;59.622;16.556;2022-12-07T14:47:50;4.97;;;2.37;;
11004;SDS011;5555;59.622;16.556;2022-12-07T14:50:17;4.47;;;2.20;;
11004;SDS011;5555;59.622;16.556;2022-12-07T14:52:46;2.83;;;2.10;;
11004;SDS011;5555;59.622;16.556;2022-12-07T14:55:26;3.50;;;2.67;;
11004;SDS011;5555;59.622;16.556;2022-12-07T14:57:54;5.27;;;2.47;;
11004;SDS011;5555;59.622;16.556;2022-12-07T15:00:22;3.23;;;2.50;;
11004;SDS011;5555;59.622;16.556;2022-12-07T15:02:49;4.27;;;2.30;;
11004;SDS011;5555;59.622;16.556;2022-12-07T15:05:15;5.47;;;2.53;;
11004;SDS011;5555;59.622;16.556;2022-12-07T15:07:41;4.47;;;2.33;;
11004;SDS011;5555;59.622;16.556;2022-12-07T15:10:11;6.30;;;2.67;;
11004;SDS011;5555;59.622;16.556;2022-12-07T15:12:45;3.43;;;2.40;;
11004;SDS011;5555;59.622;16.556;2022-12-07T15:15:11;4.90;;;2.83;;
11004;SDS011;5555;59.622;16.556;2022-12-07T15:17:37;6.43;;;3.23;;
11004;SDS011;5555;59.622;16.556;2022-12-07T15:20:02;3.57;;;2.77;;
11004;SDS011;5555;59.622;16.556;2022-12-07T15:22:29;7.43;;;3.10;;
11004;SDS011;5555;59.622;16.556;2022-12-07T15:24:56;4.33;;;2.60;;
11004;SDS011;5555;59.622;16.556;2022-12-07T15:27:22;4.43;;;2.77;;
11004;SDS011;5555;59.622;16.556;2022-12-07T15:29:48;4.77;;;3.07;;
11004;SDS011;5555;59.622;16.556;2022-12-07T15:32:13;6.40;;;3.20;;
11004;SDS011;5555;59.622;16.556;2022-12-07T15:34:39;6.03;;;3.33;;
11004;SDS011;5555;59.622;16.556;2022-12-07T15:37:05;10.57;;;3.50;;
11004;SDS011;5555;59.622;16.556;2022-12-07T15:39:31;6.27;;;3.03;;
11004;SDS011;5555;59.622;16.556;2022-12-07T15:41:57;9.27;;;3.33;;
11004;SDS011;5555;59.622;16.556;2022-12-07T15:44:23;5.87;;;2.90;;
11004;SDS011;5555;59.622;16.556;2022-12-07T15:47:07;5.73;;;3.60;;
11004;SDS011;5555;59.622;16.556;2022-12-07T15:49:32;13.13;;;3.60;;
11004;SDS011;5555;59.622;16.556;2022-12-07T15:51:58;5.40;;;3.40;;
11004;SDS011;5555;59.622;16.556;2022-12-07T15:54:25;5.13;;;3.10;;
11004;SDS011;5555;59.622;16.556;2022-12-07T15:56:52;6.33;;;2.90;;
11004;SDS011;5555;59.622;16.556;2022-12-07T15:59:18;6.80;;;3.20;;
11004;SDS011;5555;59.622;16.556;2022-12-07T16:01:43;7.03;;;2.50;;
11004;SDS011;5555;59.622;16.556;2022-12-07T16:04:09;7.67;;;2.77;;
11004;SDS011;5555;59.622;16.556;2022-12-07T16:06:35;5.73;;;3.27;;
11004;SDS011;5555;59.622;16.556;2022-12-07T16:09:01;3.27;;;2.80;;
11004;SDS011;5555;59.622;16.556;2022-12-07T16:11:27;5.93;;;3.40;;
11004;SDS011;5555;59.622;16.556;2022-12-07T16:13:52;4.77;;;3.17;;
11004;SDS011;5555;59.622;16.556;2022-12-07T16:16:18;5.93;;;3.23;;
11004;SDS011;5555;59.622;16.556;2022-12-07T16:18:46;4.00;;;3.00;;
11004;SDS011;5555;59.622;16.556;2022-12-07T16:21:13;6.87;;;2.80;;
11004;SDS011;5555;59.622;16.556;2022-12-07T16:23:39;4.23;;;2.97;;
11004;SDS011;5555;59.622;16.556;2022-12-07T16:26:06;7.43;;;3.87;;
11004;SDS011;5555;59.622;16.556;2022-12-07T16:28:48;4.03;;;3.03;;
11004;SDS011;5555;59.622;16.556;2022-12-07T16:31:15;5.03;;;3.17;;
11004;SDS011;5555;59.622;16.556;2022-12-07T16:33:43;6.87;;;3.67;;
11004;SDS011;5555;59.622;16.556;2022-12-07T16:36:10;6.80;;;3.90;;
11004;SDS011;5555;59.622;16.556;2022-12-07T16:38:37;5.67;;;3.70;;
11004;SDS011;5555;59.622;16.556;2022-12-07T16:41:03;4.83;;;3.70;;
11004;SDS011;5555;59.622;16.556;2022-12-07T16:43:32;8.07;;;4.23;;
11004;SDS011;5555;59.622;16.556;2022-12-07T16:45:58;12.80;;;4.80;;
11004;SDS011;5555;59.622;16.556;2022-12-07T16:48:24;9.93;;;4.10;;
11004;SDS011;5555;59.622;16.556;2022-12-07T16:50:49;11.77;;;4.10;;
11004;SDS011;5555;59.622;16.556;2022-12-07T16:53:15;9.27;;;4.30;;
11004;SDS011;5555;59.622;16.556;2022-12-07T16:55:42;6.97;;;3.37;;
11004;SDS011;5555;59.622;16.556;2022-12-07T16:58:10;7.83;;;3.70;;
11004;SDS011;5555;59.622;16.556;2022-12-07T17:00:37;7.07;;;3.80;;
11004;SDS011;5555;59.622;16.556;2022-12-07T17:03:03;9.27;;;3.53;;
11004;SDS011;5555;59.622;16.556;2022-12-07T17:05:29;4.40;;;3.23;;
11004;SDS011;5555;59.622;16.556;2022-12-07T17:07:57;8.17;;;3.07;;
11004;SDS011;5555;59.622;16.556;2022-12-07T17:10:23;4.97;;;3.00;;
11004;SDS011;5555;59.622;16.556;2022-12-07T17:12:50;5.23;;;3.03;;
11004;SDS011;5555;59.622;16.556;2022-12-07T17:15:16;6.93;;;3.47;;
11004;SDS011;5555;59.622;16.556;2022-12-07T17:17:45;7.33;;;3.77;;
11004;SDS011;5555;59.622;16.556;2022-12-07T17:20:31;7.23;;;3.73;;
11004;SDS011;5555;59.622;16.556;2022-12-07T17:22:57;5.33;;;3.47;;
11004;SDS011;5555;59.622;16.556;2022-12-07T17:25:24;9.03;;;4.77;;
11004;SDS011;5555;59.622;16.556;2022-12-07T17:27:50;17.17;;;4.40;;